Airfield :
LOGIN :

Register | Disclaimer

   EN    FR    IT 

 










Legend :    VFR   Marginal VFR   IFR   Intensive IFR   Very Intensive IFR
Visi :
Ceiling :
>= 8 km
>= 3000ft
5 to 8 km
1000 to 3000 ft
1500m to 5 km
500 to 1000 ft
800 to 1500m
200 to 500 ft
< 800m
< 200 ft
Symbols :   Thunderstorms  Fog  Heavy snow  Heavy precipitations  Wind > 20 kt
SIGMETs :     Misc.  Thunderstorms  Icing  Turbulence  Mountain Waves  Volcanic Ashes






- Airport Elevation : 1416 ft
- IATA code : ZRH


LSZH - Zurich

CURRENT METAR :
  • 170350Z 23009KT 9999 -SHRA FEW030 SCT042 BKN050 08/05 Q1009 TEMPO 27013G28KT SHRA

EXPIRED METARs :
  • 170320Z AUTO 20005KT 9999 FEW042 BKN050 08/06 Q1009 TEMPO 27013G28KT SHRA
  • 170250Z AUTO 18006KT 9999 SCT055 BKN065 07/06 Q1008 TEMPO SHRA
  • 170220Z AUTO 18003KT 130V220 9999 NCD 07/05 Q1008 RERA TEMPO SHRA
  • 170150Z AUTO 22008KT 9999 FEW043 BKN050 09/06 Q1008 RERA TEMPO SHRA
  • 170120Z AUTO 17003KT 130V200 9999 FEW031 SCT036 BKN045 08/07 Q1009 TEMPO SHRA

TAF TAF LSZH
Valid from the 17 at 03:00 until the 18 at 09:00 UTC


170225Z 1703/1809 19007KT 9999 SHRA FEW035 SCT050TCU BKN070 TX14/1714Z TN08/1704Z TN08/1804Z
BECMG 1704/1708 25015G35KT
PROB30
TEMPO 1712/1724 TSRA FEW040CB
BECMG 1718/1721 25006KT
ATIS : +41 43 816 2295 (DEP) +41 43 816 2294 (ARR)



MET'MAP, your aeronautical weather chart ! - Copyright ORBIFLY December 2007 - Disclaimer

ORBIFLY MET'MAP TEAM :

Programming & Development : Alexandra Zaïnal
Concept & original design : Baudouin d'Aumeries
Assistance for programming : Marc-Olivier Méhu
Technical & hardware support : Manuel Goepfert

Contact : metmap@orbifly.com




SOURCES & CREDITS :

   NOAA